Time;durP1;ratioP1;P1;durP2;ratioP2;P2;SDS_P1;SDS_P2;PMS_P1;PMS_P2;Temp;Humidity;BMP_temperature;BMP_pressure;BME280_temperature;BME280_humidity;BME280_pressure;Samples;Min_cycle;Max_cycle;Signal;HPM_P1;HPM_P2
2022/09/29 00:00:14;;;;;;;18.90;9.30;;;;;;;8.39;100.00;99628.25;5051279;28;20053;-72
2022/09/29 00:02:41;;;;;;;18.35;9.40;;;;;;;8.38;100.00;99625.91;5048435;28;20052;-72
2022/09/29 00:05:07;;;;;;;18.98;9.57;;;;;;;8.31;100.00;99621.25;5046833;28;20169;-73
2022/09/29 00:07:34;;;;;;;22.10;9.90;;;;;;;8.36;100.00;99622.75;5052690;28;20148;-73
2022/09/29 00:10:00;;;;;;;21.00;10.32;;;;;;;8.33;100.00;99620.84;5049420;28;20844;-73
2022/09/29 00:12:28;;;;;;;19.42;10.18;;;;;;;8.34;100.00;99631.47;5048146;28;20051;-73
2022/09/29 00:14:54;;;;;;;20.00;10.55;;;;;;;8.35;100.00;99633.03;5052138;28;20061;-73
2022/09/29 00:17:21;;;;;;;19.92;10.63;;;;;;;8.32;100.00;99639.34;5054596;28;20063;-72
2022/09/29 00:19:47;;;;;;;21.80;10.38;;;;;;;8.27;100.00;99626.00;5046760;28;20056;-73
2022/09/29 00:22:14;;;;;;;21.15;10.20;;;;;;;8.33;100.00;99640.13;5049880;28;20060;-72
2022/09/29 00:24:40;;;;;;;18.15;9.52;;;;;;;8.32;100.00;99633.03;5051672;28;20121;-73
2022/09/29 00:27:07;;;;;;;22.02;10.50;;;;;;;8.29;100.00;99633.84;5059466;28;20440;-74
2022/09/29 00:29:33;;;;;;;21.20;10.75;;;;;;;8.30;100.00;99636.19;5051734;28;20053;-75
2022/09/29 00:32:00;;;;;;;18.55;9.88;;;;;;;8.29;100.00;99631.09;5041809;28;20048;-72
2022/09/29 00:34:27;;;;;;;21.63;10.73;;;;;;;8.25;100.00;99630.34;5057029;28;20080;-73
2022/09/29 00:36:53;;;;;;;19.05;10.82;;;;;;;8.18;100.00;99631.19;5054424;28;20538;-73
2022/09/29 00:39:20;;;;;;;22.10;10.18;;;;;;;8.17;100.00;99637.88;5054208;28;20052;-73
2022/09/29 00:41:46;;;;;;;21.70;11.05;;;;;;;8.15;100.00;99637.50;5055645;28;20764;-73
2022/09/29 00:44:12;;;;;;;23.63;11.07;;;;;;;8.15;100.00;99631.97;5049835;28;20132;-73
2022/09/29 00:46:51;;;;;;;20.85;10.60;;;;;;;8.13;100.00;99636.34;5048622;28;20048;-73
2022/09/29 00:49:41;;;;;;;21.52;10.95;;;;;;;8.10;100.00;99635.16;5054569;28;20056;-73
2022/09/29 00:52:14;;;;;;;20.30;11.07;;;;;;;8.12;100.00;99638.31;5044291;28;20049;-72
2022/09/29 00:54:46;;;;;;;22.27;11.75;;;;;;;8.13;100.00;99630.84;5050768;28;20052;-72
2022/09/29 00:57:17;;;;;;;21.98;11.63;;;;;;;8.09;100.00;99641.88;5052907;28;20052;-73
2022/09/29 00:59:59;;;;;;;21.40;11.30;;;;;;;8.10;100.00;99640.66;5050066;28;20052;-73
2022/09/29 01:02:25;;;;;;;19.55;10.55;;;;;;;8.09;100.00;99641.88;5051733;28;20052;-73
2022/09/29 01:04:53;;;;;;;21.42;11.85;;;;;;;8.09;100.00;99638.34;5050077;28;20044;-72
2022/09/29 01:07:22;;;;;;;21.63;11.00;;;;;;;8.07;100.00;99638.75;5054005;28;20065;-73
2022/09/29 01:09:52;;;;;;;20.88;11.02;;;;;;;8.07;100.00;99644.25;5054832;28;20049;-75
2022/09/29 01:12:19;;;;;;;21.33;11.05;;;;;;;7.99;100.00;99629.75;5053692;28;20052;-73
2022/09/29 01:14:47;;;;;;;21.58;11.30;;;;;;;8.02;100.00;99630.91;5051779;28;20980;-73
2022/09/29 01:17:14;;;;;;;27.30;11.32;;;;;;;8.00;100.00;99630.53;5057140;28;20052;-74
2022/09/29 01:19:47;;;;;;;24.10;11.07;;;;;;;7.99;100.00;99631.72;5052799;28;20114;-74
2022/09/29 01:22:45;;;;;;;22.73;11.65;;;;;;;7.98;100.00;99630.16;5059237;28;20048;-73
2022/09/29 01:25:30;;;;;;;20.15;10.98;;;;;;;7.97;100.00;99634.09;5020439;28;20056;-73
2022/09/29 01:28:09;;;;;;;24.17;11.90;;;;;;;7.95;100.00;99636.47;5060651;28;20052;-73
2022/09/29 01:31:06;;;;;;;24.90;11.77;;;;;;;7.91;100.00;99639.25;5057532;28;20052;-72
2022/09/29 01:33:46;;;;;;;24.33;11.98;;;;;;;7.88;100.00;99642.03;5048834;28;20052;-73
2022/09/29 01:36:34;;;;;;;22.67;12.05;;;;;;;7.85;100.00;99645.59;5051969;28;20105;-73
2022/09/29 01:39:09;;;;;;;20.48;11.00;;;;;;;7.80;100.00;99638.53;5056628;28;20473;-73
2022/09/29 01:41:47;;;;;;;20.27;11.13;;;;;;;7.74;100.00;99637.41;5061908;28;20051;-73
2022/09/29 01:44:17;;;;;;;21.25;10.00;;;;;;;7.74;100.00;99634.66;5052880;28;20056;-73
2022/09/29 01:47:09;;;;;;;23.10;11.20;;;;;;;7.70;100.00;99639.41;5051500;28;20151;-73
2022/09/29 01:49:42;;;;;;;25.17;12.10;;;;;;;7.70;100.00;99646.91;5047856;28;20056;-74
2022/09/29 01:52:22;;;;;;;22.92;11.63;;;;;;;7.64;100.00;99631.97;5042962;28;20057;-72
2022/09/29 01:55:07;;;;;;;20.50;10.50;;;;;;;7.48;100.00;99639.94;5053446;28;20060;-72
2022/09/29 01:57:46;;;;;;;21.15;11.02;;;;;;;7.43;100.00;99643.13;5046810;28;20052;-72
2022/09/29 02:00:16;;;;;;;25.15;11.43;;;;;;;7.44;100.00;99647.44;5044331;28;20052;-74
2022/09/29 02:03:01;;;;;;;22.48;11.70;;;;;;;7.39;100.00;99639.63;5048055;28;20048;-72
2022/09/29 02:05:36;;;;;;;24.17;12.02;;;;;;;7.39;100.00;99642.38;5057441;28;20044;-73
2022/09/29 02:08:31;;;;;;;27.30;11.60;;;;;;;7.38;100.00;99640.78;5060712;28;20053;-73
2022/09/29 02:11:06;;;;;;;27.23;12.10;;;;;;;7.37;100.00;99645.53;5065902;28;20052;-72
2022/09/29 02:14:12;;;;;;;20.75;11.13;;;;;;;7.35;100.00;99647.09;5061107;28;20055;-75
2022/09/29 02:16:46;;;;;;;24.48;10.52;;;;;;;7.24;100.00;99649.13;5067624;28;20052;-73
2022/09/29 02:19:21;;;;;;;24.02;11.80;;;;;;;7.24;100.00;99640.84;5059488;28;20048;-75
2022/09/29 02:21:50;;;;;;;25.25;13.07;;;;;;;7.30;100.00;99639.25;5063169;28;20049;-74
2022/09/29 02:24:17;;;;;;;24.38;12.65;;;;;;;7.26;100.00;99644.78;5061985;28;20056;-73
2022/09/29 02:26:44;;;;;;;24.75;11.88;;;;;;;7.22;100.00;99654.22;5060809;28;20072;-73
2022/09/29 02:29:11;;;;;;;22.85;12.05;;;;;;;7.20;100.00;99657.41;5058816;28;20041;-74
2022/09/29 02:31:37;;;;;;;24.83;12.13;;;;;;;7.23;100.00;99651.06;5062268;28;20049;-73
2022/09/29 02:34:07;;;;;;;22.10;11.13;;;;;;;7.22;100.00;99654.22;5059012;28;20535;-74
2022/09/29 02:36:55;;;;;;;21.60;10.57;;;;;;;7.18;100.00;99654.25;5066702;28;20420;-74
2022/09/29 02:39:31;;;;;;;21.95;11.23;;;;;;;7.19;100.00;99655.03;5062573;28;20439;-73
2022/09/29 02:42:18;;;;;;;23.35;12.57;;;;;;;7.20;100.00;99656.59;5065925;28;20040;-73
2022/09/29 02:45:06;;;;;;;30.55;11.88;;;;;;;7.16;100.00;99655.84;5069237;28;20143;-74
2022/09/29 02:47:35;;;;;;;21.50;11.52;;;;;;;7.15;100.00;99654.25;5061427;28;20056;-74
2022/09/29 02:50:26;;;;;;;24.75;12.20;;;;;;;7.12;100.00;99655.84;5067461;28;20073;-73
2022/09/29 02:53:18;;;;;;;25.58;12.40;;;;;;;7.10;100.00;99651.94;5066164;28;20041;-73
2022/09/29 02:55:59;;;;;;;24.85;11.50;;;;;;;7.08;100.00;99654.28;5059039;28;20048;-75
2022/09/29 02:58:41;;;;;;;23.27;11.60;;;;;;;7.11;100.00;99650.72;5065195;28;20489;-73
2022/09/29 03:01:15;;;;;;;22.80;11.60;;;;;;;7.10;100.00;99654.69;5063930;28;20055;-74
2022/09/29 03:03:42;;;;;;;24.23;11.93;;;;;;;7.03;100.00;99654.72;5058400;28;20409;-73
2022/09/29 03:06:11;;;;;;;23.73;12.50;;;;;;;6.98;100.00;99652.34;5069440;28;20458;-74
2022/09/29 03:08:37;;;;;;;28.42;12.30;;;;;;;6.88;100.00;99655.94;5061143;28;20048;-74
2022/09/29 03:11:04;;;;;;;23.27;12.35;;;;;;;6.82;100.00;99655.56;5059519;28;20052;-72
2022/09/29 03:13:30;;;;;;;22.58;11.05;;;;;;;6.79;100.00;99650.06;5054788;28;20044;-74
2022/09/29 03:15:57;;;;;;;29.65;12.68;;;;;;;6.75;100.00;99655.56;5069336;28;20043;-73
2022/09/29 03:18:23;;;;;;;26.70;12.18;;;;;;;6.73;100.00;99646.97;5060120;28;20460;-73
2022/09/29 03:20:53;;;;;;;22.60;12.65;;;;;;;6.70;100.00;99635.97;5066806;28;20052;-74
2022/09/29 03:23:20;;;;;;;23.15;11.52;;;;;;;6.76;100.00;99646.16;5071300;28;20063;-74
2022/09/29 03:25:46;;;;;;;30.10;13.27;;;;;;;6.78;100.00;99645.78;5056395;28;20589;-74
2022/09/29 03:28:15;;;;;;;23.52;12.55;;;;;;;6.79;100.00;99647.31;5064384;28;20041;-73
2022/09/29 03:30:42;;;;;;;27.33;13.48;;;;;;;6.80;100.00;99648.88;5057347;28;20045;-73
2022/09/29 03:33:08;;;;;;;25.38;12.45;;;;;;;6.80;100.00;99646.13;5074643;28;20044;-74
2022/09/29 03:35:35;;;;;;;23.88;12.50;;;;;;;6.79;100.00;99653.59;5066762;28;20466;-74
2022/09/29 03:38:01;;;;;;;23.48;12.30;;;;;;;6.80;100.00;99644.19;5063376;28;20048;-73
2022/09/29 03:40:28;;;;;;;25.02;12.88;;;;;;;6.79;100.00;99650.06;5051447;28;20048;-73
2022/09/29 03:42:54;;;;;;;22.88;12.05;;;;;;;6.74;100.00;99651.25;5067329;28;20172;-73
2022/09/29 03:45:21;;;;;;;24.90;12.68;;;;;;;6.73;100.00;99649.72;5069863;28;20098;-72
2022/09/29 03:47:47;;;;;;;23.98;11.88;;;;;;;6.73;100.00;99649.72;5066565;28;20528;-74
2022/09/29 03:50:14;;;;;;;23.95;12.30;;;;;;;6.71;100.00;99646.56;5065157;28;20060;-73
2022/09/29 03:52:40;;;;;;;25.75;12.95;;;;;;;6.70;100.00;99646.94;5055475;28;20048;-73
2022/09/29 03:55:07;;;;;;;22.98;11.90;;;;;;;6.70;100.00;99647.75;5062344;28;20056;-73
2022/09/29 03:57:34;;;;;;;23.17;12.15;;;;;;;6.70;100.00;99649.69;5069863;28;20055;-73
2022/09/29 04:00:00;;;;;;;24.92;11.25;;;;;;;6.56;100.00;99647.00;5075831;28;20493;-73
2022/09/29 04:02:27;;;;;;;26.70;12.38;;;;;;;6.55;100.00;99656.44;5057467;28;20049;-74
2022/09/29 04:04:53;;;;;;;26.30;12.35;;;;;;;6.56;100.00;99661.53;5060373;28;20045;-72
2022/09/29 04:07:20;;;;;;;26.40;13.32;;;;;;;6.60;100.00;99661.50;5058861;28;20064;-73
2022/09/29 04:09:46;;;;;;;28.73;13.15;;;;;;;6.56;100.00;99655.22;5056489;28;20052;-73
2022/09/29 04:12:13;;;;;;;25.15;12.68;;;;;;;6.56;100.00;99647.78;5075530;28;20047;-71
2022/09/29 04:14:39;;;;;;;30.77;14.40;;;;;;;6.56;100.00;99650.53;5074633;28;20508;-73
2022/09/29 04:17:06;;;;;;;22.92;11.45;;;;;;;6.52;100.00;99660.72;5062724;28;20451;-73
2022/09/29 04:19:33;;;;;;;21.33;10.85;;;;;;;6.43;100.00;99662.31;5062234;28;20053;-72
2022/09/29 04:21:59;;;;;;;23.42;12.15;;;;;;;6.44;100.00;99664.66;5065119;28;20059;-73
2022/09/29 04:24:26;;;;;;;29.17;13.20;;;;;;;6.43;100.00;99668.59;5086193;28;20048;-74
2022/09/29 04:26:52;;;;;;;25.08;12.48;;;;;;;6.43;100.00;99670.56;5061010;28;20063;-73
2022/09/29 04:29:18;;;;;;;26.15;12.43;;;;;;;6.40;100.00;99665.84;5062974;28;20052;-73
2022/09/29 04:31:45;;;;;;;24.48;11.98;;;;;;;6.39;100.00;99667.03;5072157;28;20063;-72
2022/09/29 04:34:12;;;;;;;24.25;12.32;;;;;;;6.39;100.00;99676.06;5077205;28;20041;-74
2022/09/29 04:36:38;;;;;;;28.60;13.07;;;;;;;6.37;100.00;99674.88;5063103;28;20790;-73
2022/09/29 04:39:05;;;;;;;27.88;13.23;;;;;;;6.37;100.00;99674.88;5074515;28;20051;-74
2022/09/29 04:41:34;;;;;;;24.23;12.52;;;;;;;6.25;100.00;99675.28;5086172;28;20059;-73
2022/09/29 04:44:01;;;;;;;27.23;12.75;;;;;;;6.28;100.00;99674.50;5063885;28;20055;-73
2022/09/29 04:46:28;;;;;;;27.05;12.48;;;;;;;6.31;100.00;99679.22;5067051;28;20040;-73
2022/09/29 04:48:54;;;;;;;24.98;12.70;;;;;;;6.34;100.00;99681.94;5070761;28;20426;-73
2022/09/29 04:51:21;;;;;;;25.63;11.98;;;;;;;6.38;100.00;99687.44;5070425;28;20048;-73
2022/09/29 04:53:47;;;;;;;25.83;13.05;;;;;;;6.35;100.00;99680.00;5071003;28;20048;-72
2022/09/29 04:56:14;;;;;;;23.13;12.07;;;;;;;6.35;100.00;99683.50;5076038;28;20051;-71
2022/09/29 04:58:40;;;;;;;22.92;11.77;;;;;;;6.38;100.00;99687.44;5062697;28;20056;-72
2022/09/29 05:01:09;;;;;;;24.98;11.68;;;;;;;6.41;100.00;99694.91;5065795;28;20049;-71
2022/09/29 05:03:36;;;;;;;28.33;12.82;;;;;;;6.40;100.00;99693.31;5058980;28;20052;-73
2022/09/29 05:06:02;;;;;;;25.77;12.50;;;;;;;6.38;100.00;99688.22;5065687;28;20044;-73
2022/09/29 05:08:29;;;;;;;31.63;12.30;;;;;;;6.31;100.00;99698.44;5064877;28;20056;-72
2022/09/29 05:10:55;;;;;;;28.83;13.25;;;;;;;6.29;100.00;99692.56;5069166;28;20288;-73
2022/09/29 05:13:23;;;;;;;28.48;12.77;;;;;;;6.27;100.00;99698.44;5062327;28;20052;-73
2022/09/29 05:15:54;;;;;;;27.00;13.80;;;;;;;6.24;100.00;99696.47;5067372;28;20056;-72
2022/09/29 05:18:21;;;;;;;28.80;13.27;;;;;;;6.25;100.00;99700.81;5060416;28;20087;-73
2022/09/29 05:20:47;;;;;;;24.55;11.90;;;;;;;6.24;100.00;99710.19;5067595;28;20052;-74
2022/09/29 05:23:34;;;;;;;26.90;12.50;;;;;;;6.21;100.00;99702.75;5057496;28;20088;-73
2022/09/29 05:26:03;;;;;;;26.80;13.38;;;;;;;6.22;100.00;99711.78;5059144;28;20045;-73
2022/09/29 05:28:30;;;;;;;27.95;13.23;;;;;;;6.19;100.00;99709.81;5064690;28;20081;-73
2022/09/29 05:31:01;;;;;;;26.23;13.05;;;;;;;6.19;100.00;99715.31;5068341;28;20052;-73
2022/09/29 05:33:27;;;;;;;24.58;12.35;;;;;;;6.17;100.00;99715.69;5056015;28;20052;-72
2022/09/29 05:35:54;;;;;;;26.00;12.63;;;;;;;6.14;100.00;99721.19;5068063;28;20044;-72
2022/09/29 05:38:22;;;;;;;24.92;12.93;;;;;;;6.10;100.00;99720.38;5071414;28;20789;-73
2022/09/29 05:40:49;;;;;;;29.20;14.05;;;;;;;6.08;100.00;99726.31;5061581;28;20056;-73
2022/09/29 05:43:16;;;;;;;25.13;12.95;;;;;;;6.03;100.00;99723.94;5064194;28;20052;-73
2022/09/29 05:45:42;;;;;;;25.30;13.55;;;;;;;6.00;100.00;99727.44;5068513;28;20625;-69
2022/09/29 05:48:09;;;;;;;26.38;12.98;;;;;;;6.04;100.00;99733.72;5061315;28;20143;-73
2022/09/29 05:50:42;;;;;;;25.05;13.20;;;;;;;6.10;100.00;99731.38;5068799;28;20059;-75
2022/09/29 05:53:10;;;;;;;23.45;12.10;;;;;;;6.12;100.00;99735.31;5058727;28;20057;-73
2022/09/29 05:55:37;;;;;;;25.02;12.10;;;;;;;6.14;100.00;99735.69;5070960;28;20060;-72
2022/09/29 05:58:05;;;;;;;26.27;12.82;;;;;;;6.18;100.00;99738.47;5069852;28;20055;-74
2022/09/29 06:00:32;;;;;;;29.25;12.40;;;;;;;6.17;100.00;99742.41;5070143;28;20059;-74
2022/09/29 06:02:59;;;;;;;26.83;14.05;;;;;;;6.17;100.00;99736.91;5080057;28;20056;-73
2022/09/29 06:05:27;;;;;;;29.40;14.48;;;;;;;6.19;100.00;99742.78;5068167;28;20045;-72
2022/09/29 06:07:54;;;;;;;26.85;14.27;;;;;;;6.15;100.00;99742.78;5088158;28;20055;-73
2022/09/29 06:10:21;;;;;;;30.08;14.38;;;;;;;6.19;100.00;99745.53;5080299;28;20420;-73
2022/09/29 06:12:48;;;;;;;26.50;13.10;;;;;;;6.18;100.00;99749.44;5068276;28;20049;-73
2022/09/29 06:15:14;;;;;;;26.10;13.60;;;;;;;6.17;100.00;99747.88;5074433;28;20051;-74
2022/09/29 06:17:41;;;;;;;27.52;14.82;;;;;;;6.22;100.00;99752.97;5070718;28;20056;-73
2022/09/29 06:20:08;;;;;;;24.88;13.25;;;;;;;6.28;100.00;99743.94;5067390;28;20051;-73
2022/09/29 06:22:34;;;;;;;26.92;13.65;;;;;;;6.34;100.00;99747.88;5074191;28;20048;-74
2022/09/29 06:25:01;;;;;;;25.35;12.52;;;;;;;6.26;100.00;99749.06;5071054;28;20501;-73
2022/09/29 06:27:27;;;;;;;29.08;13.90;;;;;;;6.25;100.00;99754.94;5072244;28;20044;-73
2022/09/29 06:29:53;;;;;;;28.55;13.52;;;;;;;6.27;100.00;99756.13;5064367;28;20048;-73
2022/09/29 06:32:20;;;;;;;35.55;14.95;;;;;;;6.27;100.00;99753.38;5064587;28;20070;-71
2022/09/29 06:37:34;;;;;;;36.17;17.00;;;;;;;6.40;100.00;99762.00;5067107;28;20059;-70
2022/09/29 06:40:03;;;;;;;33.88;17.55;;;;;;;6.53;100.00;99752.19;5061319;28;20041;-71
2022/09/29 06:42:36;;;;;;;;;;;;;;;6.65;100.00;99757.31;5058767;28;20052;-68
2022/09/29 06:45:02;;;;;;;31.02;14.73;;;;;;;6.66;100.00;99754.19;5066498;28;20285;-70
2022/09/29 06:47:29;;;;;;;28.13;14.70;;;;;;;6.81;100.00;99765.91;5070837;28;20059;-70
2022/09/29 06:49:57;;;;;;;30.33;16.92;;;;;;;6.90;100.00;99769.06;5079517;28;20052;-70
2022/09/29 06:52:33;;;;;;;27.33;15.18;;;;;;;6.93;100.00;99757.28;5070786;28;20051;-69
2022/09/29 06:54:59;;;;;;;30.25;17.05;;;;;;;7.00;100.00;99763.56;5074745;28;20056;-71
2022/09/29 06:57:26;;;;;;;34.47;17.05;;;;;;;7.16;100.00;99776.88;5060174;28;20060;-69
2022/09/29 06:59:52;;;;;;;37.58;18.65;;;;;;;7.24;100.00;99778.41;5059717;28;20059;-69
2022/09/29 07:02:19;;;;;;;31.63;17.15;;;;;;;7.33;100.00;99776.03;5079244;28;20055;-69
2022/09/29 07:04:47;;;;;;;32.08;18.42;;;;;;;7.39;100.00;99783.47;5060533;28;20506;-70
2022/09/29 07:07:15;;;;;;;34.95;18.13;;;;;;;7.47;100.00;99781.50;5059675;28;20047;-68
2022/09/29 07:09:41;;;;;;;34.65;19.30;;;;;;;7.55;100.00;99781.06;5051512;28;20049;-69
2022/09/29 07:12:10;;;;;;;30.75;17.90;;;;;;;7.65;100.00;99779.44;5062072;28;20048;-69
2022/09/29 07:14:37;;;;;;;36.10;18.15;;;;;;;7.74;100.00;99790.81;5054586;28;20063;-70
2022/09/29 07:17:04;;;;;;;39.42;21.60;;;;;;;7.83;100.00;99793.91;5078649;28;20048;-68
2022/09/29 07:19:31;;;;;;;32.55;18.88;;;;;;;7.92;100.00;99802.53;5055808;28;20051;-70
2022/09/29 07:21:57;;;;;;;37.78;21.25;;;;;;;7.94;100.00;99794.66;5056090;28;20052;-70
2022/09/29 07:24:25;;;;;;;39.78;22.58;;;;;;;8.12;100.00;99800.84;5053155;28;20057;-67
2022/09/29 07:26:51;;;;;;;44.65;22.55;;;;;;;8.22;100.00;99796.47;5063712;28;20503;-69
2022/09/29 07:29:18;;;;;;;42.67;21.30;;;;;;;8.34;100.00;99794.06;5060943;28;20048;-70
2022/09/29 07:31:45;;;;;;;39.53;22.33;;;;;;;8.46;100.00;99806.56;5074948;28;20505;-71
2022/09/29 07:34:19;;;;;;;38.38;21.55;;;;;;;8.57;100.00;99799.00;5064269;28;20157;-68
2022/09/29 07:36:45;;;;;;;39.83;22.55;;;;;;;8.65;100.00;99795.81;5051661;28;20045;-68
2022/09/29 07:39:12;;;;;;;49.10;25.65;;;;;;;8.83;100.00;99807.47;5060056;28;20052;-69
2022/09/29 07:41:38;;;;;;;39.85;22.38;;;;;;;8.93;100.00;99797.50;5058577;28;20530;-70
2022/09/29 07:44:05;;;;;;;38.25;21.70;;;;;;;9.04;100.00;99798.97;5076210;28;20420;-69
2022/09/29 07:46:31;;;;;;;32.80;18.98;;;;;;;9.29;100.00;99807.03;5067393;28;20052;-75
2022/09/29 07:48:58;;;;;;;32.60;17.52;;;;;;;9.43;100.00;99813.19;5064268;28;20053;-70
2022/09/29 07:51:24;;;;;;;35.13;18.50;;;;;;;9.59;100.00;99818.91;5061303;28;20052;-73
2022/09/29 07:53:51;;;;;;;28.45;14.50;;;;;;;9.76;100.00;99817.16;5063215;28;20081;-69
2022/09/29 07:56:20;;;;;;;32.70;16.55;;;;;;;9.92;100.00;99820.88;5052262;28;20756;-69
2022/09/29 07:58:48;;;;;;;29.52;16.48;;;;;;;10.04;100.00;99823.09;5059747;28;20052;-70
2022/09/29 08:01:17;;;;;;;31.63;16.77;;;;;;;10.13;100.00;99822.63;5066516;28;20133;-70
2022/09/29 08:03:51;;;;;;;29.30;16.05;;;;;;;10.25;100.00;99828.38;5066868;28;20127;-69
2022/09/29 08:06:18;;;;;;;30.88;17.38;;;;;;;10.35;100.00;99826.63;5083686;28;20048;-68
2022/09/29 08:08:46;;;;;;;31.55;16.77;;;;;;;10.50;100.00;99830.78;5065334;28;20053;-70
2022/09/29 08:11:27;;;;;;;31.55;16.00;;;;;;;10.60;100.00;99824.31;5062366;28;20064;-70
2022/09/29 08:13:58;;;;;;;28.95;14.88;;;;;;;10.63;100.00;99828.22;5058310;28;20052;-71
2022/09/29 08:16:25;;;;;;;29.00;15.55;;;;;;;10.78;100.00;99829.53;5062505;28;20493;-71
2022/09/29 08:18:52;;;;;;;31.48;16.55;;;;;;;10.85;100.00;99829.44;5072429;28;20079;-69
2022/09/29 08:21:18;;;;;;;28.98;15.32;;;;;;;10.96;100.00;99832.78;5058333;28;20052;-70
2022/09/29 08:23:45;;;;;;;29.92;16.58;;;;;;;11.02;100.00;99825.59;5055120;28;20067;-71
2022/09/29 08:26:14;;;;;;;29.65;15.05;;;;;;;11.14;100.00;99833.28;5062007;28;20052;-69
2022/09/29 08:28:41;;;;;;;25.38;13.70;;;;;;;11.27;100.00;99834.25;5065652;28;20060;-72
2022/09/29 08:31:11;;;;;;;30.23;14.38;;;;;;;11.37;100.00;99836.06;5068687;28;20052;-70
2022/09/29 08:33:38;;;;;;;27.80;15.45;;;;;;;11.45;100.00;99834.72;5057922;28;20057;-69
2022/09/29 08:36:13;;;;;;;33.85;16.20;;;;;;;11.64;100.00;99837.53;5065242;28;20056;-70
2022/09/29 08:38:44;;;;;;;28.20;15.15;;;;;;;11.78;100.00;99836.47;5064026;28;20136;-71
2022/09/29 08:41:31;;;;;;;27.83;15.00;;;;;;;11.93;100.00;99848.84;5071332;28;20055;-71
2022/09/29 08:44:15;;;;;;;28.58;14.85;;;;;;;12.02;100.00;99854.59;5077959;28;20048;-71
2022/09/29 08:47:13;;;;;;;24.40;12.93;;;;;;;12.09;100.00;99852.44;5072484;28;20068;-70
2022/09/29 08:50:02;;;;;;;27.85;13.77;;;;;;;12.34;100.00;99858.25;5055906;28;20076;-70
2022/09/29 08:52:33;;;;;;;24.40;13.43;;;;;;;12.45;100.00;99861.56;5068816;28;20052;-71
2022/09/29 08:55:27;;;;;;;15.80;7.45;;;;;;;12.39;100.00;99865.28;5066651;28;20525;-71
2022/09/29 08:57:58;;;;;;;24.20;13.30;;;;;;;12.66;100.00;99865.88;5059690;28;20044;-71
2022/09/29 09:00:40;;;;;;;24.95;10.68;;;;;;;12.66;100.00;99871.41;5049602;28;20044;-72
2022/09/29 09:03:22;;;;;;;21.40;11.20;;;;;;;12.71;100.00;99866.13;5046798;28;20052;-73
2022/09/29 09:06:01;;;;;;;22.80;11.73;;;;;;;12.92;100.00;99862.06;5053643;28;20052;-73
2022/09/29 09:08:46;;;;;;;19.50;9.70;;;;;;;12.95;100.00;99869.53;5057778;28;20063;-72
2022/09/29 09:11:41;;;;;;;19.55;7.25;;;;;;;12.95;100.00;99863.97;5045773;28;20134;-72
2022/09/29 09:14:23;;;;;;;20.90;11.30;;;;;;;13.12;100.00;99868.34;5017384;28;20055;-72
2022/09/29 09:17:19;;;;;;;21.08;10.45;;;;;;;13.35;100.00;99859.81;5050291;28;20044;-72
2022/09/29 09:20:14;;;;;;;16.33;6.75;;;;;;;13.35;100.00;99867.38;5048193;28;20064;-72
2022/09/29 09:22:53;;;;;;;15.93;7.65;;;;;;;13.47;100.00;99870.22;5045285;28;20062;-72
2022/09/29 09:25:30;;;;;;;20.25;10.18;;;;;;;13.71;100.00;99873.56;5046345;28;20045;-72
2022/09/29 09:28:15;;;;;;;22.27;11.18;;;;;;;13.90;100.00;99867.84;5047618;28;20052;-72
2022/09/29 09:31:07;;;;;;;4.93;1.92;;;;;;;13.80;100.00;99868.91;5047538;28;20056;-73
2022/09/29 09:33:41;;;;;;;21.65;11.35;;;;;;;14.06;100.00;99875.34;5051689;28;20044;-72
2022/09/29 09:36:12;;;;;;;21.02;9.52;;;;;;;14.33;100.00;99873.00;5047862;28;20726;-71
2022/09/29 09:38:58;;;;;;;20.20;8.93;;;;;;;14.58;100.00;99873.03;5050792;28;20044;-71
2022/09/29 09:41:27;;;;;;;18.20;9.23;;;;;;;14.88;100.00;99878.03;5054401;28;20051;-72
2022/09/29 09:44:09;;;;;;;17.90;7.53;;;;;;;15.18;100.00;99872.66;5045282;28;20055;-73
2022/09/29 09:46:50;;;;;;;15.68;6.68;;;;;;;15.46;100.00;99874.53;5048872;28;20572;-73
2022/09/29 09:49:19;;;;;;;15.20;6.32;;;;;;;15.70;100.00;99874.91;5058767;28;20055;-73
2022/09/29 09:51:59;;;;;;;17.42;7.70;;;;;;;15.83;100.00;99866.50;5046422;28;20167;-72
2022/09/29 09:54:28;;;;;;;13.85;6.95;;;;;;;15.88;100.00;99868.69;5055653;28;20056;-73
2022/09/29 09:57:31;;;;;;;19.17;7.15;;;;;;;15.81;100.00;99871.72;5059048;28;20047;-72
2022/09/29 10:00:08;;;;;;;18.27;7.25;;;;;;;15.88;100.00;99879.84;5052608;28;20072;-72
2022/09/29 10:02:41;;;;;;;11.85;5.07;;;;;;;15.90;100.00;99874.59;5040740;28;20056;-72
2022/09/29 10:05:12;;;;;;;16.02;5.97;;;;;;;15.95;100.00;99879.59;5038578;28;20113;-72
2022/09/29 10:07:38;;;;;;;13.43;6.72;;;;;;;16.10;100.00;99872.28;5051679;28;20052;-70
2022/09/29 10:10:14;;;;;;;17.60;6.55;;;;;;;16.08;100.00;99875.53;5052182;28;20051;-70
2022/09/29 10:12:41;;;;;;;16.23;6.47;;;;;;;16.20;99.91;99874.66;5055860;28;20049;-71
2022/09/29 10:15:22;;;;;;;13.95;5.32;;;;;;;16.41;96.50;99873.09;5056779;28;20063;-71
2022/09/29 10:18:01;;;;;;;4.90;2.13;;;;;;;16.23;89.38;99878.56;5053162;28;20044;-68
2022/09/29 10:20:34;;;;;;;5.53;1.80;;;;;;;15.86;87.54;99874.72;5045013;28;20059;-71
2022/09/29 10:23:19;;;;;;;7.00;2.30;;;;;;;15.45;92.75;99895.28;5046075;28;20044;-72
2022/09/29 10:26:16;;;;;;;12.13;4.53;;;;;;;15.62;89.65;99878.41;5049277;28;20053;-74
2022/09/29 10:29:22;;;;;;;10.98;4.68;;;;;;;15.67;90.61;99875.03;5045665;28;20070;-72
2022/09/29 10:32:20;;;;;;;9.43;1.85;;;;;;;15.61;80.76;99888.75;5038551;28;20124;-72
2022/09/29 10:34:53;;;;;;;6.28;3.03;;;;;;;15.60;82.87;99887.22;5039762;28;20063;-75
2022/09/29 10:37:23;;;;;;;9.57;3.58;;;;;;;15.52;83.24;99887.91;5045666;28;20036;-73
2022/09/29 10:40:01;;;;;;;6.03;2.95;;;;;;;15.49;80.49;99889.56;5045835;28;20048;-74
2022/09/29 10:42:34;;;;;;;8.38;3.72;;;;;;;15.69;85.47;99881.69;5045361;28;20064;-74
2022/09/29 10:45:03;;;;;;;13.35;3.78;;;;;;;15.82;86.78;99882.44;5046990;28;20044;-74
2022/09/29 10:47:30;;;;;;;8.52;3.92;;;;;;;16.19;88.76;99886.28;5045319;28;20059;-74
2022/09/29 10:50:20;;;;;;;10.65;3.92;;;;;;;16.75;87.42;99882.16;5046149;28;20055;-74
2022/09/29 10:52:53;;;;;;;9.55;3.03;;;;;;;16.73;74.31;99889.41;5042533;28;20044;-74
2022/09/29 10:55:28;;;;;;;10.27;3.75;;;;;;;16.66;77.54;99889.69;5040188;28;20058;-73
2022/09/29 10:57:58;;;;;;;12.15;3.65;;;;;;;16.95;77.80;99898.53;5042214;28;20059;-73
2022/09/29 11:00:25;;;;;;;8.20;3.97;;;;;;;17.03;78.65;99892.19;5048050;28;20055;-73
2022/09/29 11:02:58;;;;;;;15.02;4.75;;;;;;;17.05;80.82;99884.09;5040658;28;20055;-72
2022/09/29 11:05:24;;;;;;;11.85;4.45;;;;;;;17.07;76.52;99892.81;5041900;28;20056;-72
2022/09/29 11:07:52;;;;;;;16.42;4.65;;;;;;;17.60;79.28;99896.22;5052522;28;20044;-71
2022/09/29 11:10:47;;;;;;;11.40;4.88;;;;;;;17.88;73.72;99892.19;5053760;28;20059;-72
2022/09/29 11:13:23;;;;;;;10.75;3.78;;;;;;;18.13;72.21;99888.31;5030763;28;20048;-75
2022/09/29 11:15:50;;;;;;;10.63;3.88;;;;;;;18.07;68.12;99885.38;5049923;28;20056;-73
2022/09/29 11:18:31;;;;;;;10.45;3.88;;;;;;;18.03;64.77;99896.69;5055483;28;20835;-73
2022/09/29 11:21:13;;;;;;;7.50;3.72;;;;;;;18.34;68.18;99896.53;5051958;28;20055;-74
2022/09/29 11:23:46;;;;;;;10.45;3.83;;;;;;;18.57;68.49;99900.72;5039860;28;20067;-70
2022/09/29 11:26:37;;;;;;;5.25;1.48;;;;;;;18.44;59.82;99903.69;5046691;28;20059;-71
2022/09/29 11:29:33;;;;;;;7.30;3.55;;;;;;;18.58;61.79;99908.63;5039710;28;20048;-72
2022/09/29 11:32:46;;;;;;;5.65;2.42;;;;;;;18.51;61.35;99897.78;5044758;28;20048;-70
2022/09/29 11:35:19;;;;;;;7.53;3.10;;;;;;;18.18;59.84;99902.44;5037444;28;20056;-71
2022/09/29 11:38:24;;;;;;;4.88;1.73;;;;;;;17.79;58.83;99904.16;5043570;28;20049;-75
2022/09/29 11:41:29;;;;;;;3.42;1.80;;;;;;;17.85;58.53;99898.72;5046787;28;20869;-74
2022/09/29 11:44:00;;;;;;;6.90;2.80;;;;;;;18.49;62.82;99900.25;5010710;28;20052;-73
2022/09/29 11:46:45;;;;;;;6.70;2.58;;;;;;;18.75;56.02;99903.44;5050784;28;20719;-72